Time;durP1;ratioP1;P1;durP2;ratioP2;P2;SDS_P1;SDS_P2;PMS_P1;PMS_P2;Temp;Humidity;BMP_temperature;BMP_pressure;BME280_temperature;BME280_humidity;BME280_pressure;Samples;Min_cycle;Max_cycle;Signal;HPM_P1;HPM_P2
2023/03/20 00:02:11;;;;;;;;;;;10.30;99.90;;;;;;4983228;28;19938;-92
2023/03/20 00:04:38;;;;;;;;;;;10.30;99.90;;;;;;4989967;28;19930;-92
2023/03/20 00:07:09;;;;;;;;;;;10.20;99.90;;;;;;4981908;28;19925;-94
2023/03/20 00:09:36;;;;;;;;;;;10.20;99.90;;;;;;4990463;28;19926;-92
2023/03/20 00:12:04;;;;;;;;;;;10.20;99.90;;;;;;4983191;28;19933;-93
2023/03/20 00:14:31;;;;;;;;;;;10.20;99.90;;;;;;4985868;28;19929;-95
2023/03/20 00:16:58;;;;;;;;;;;10.20;99.90;;;;;;4982658;28;20034;-95
2023/03/20 00:19:26;;;;;;;;;;;10.20;99.90;;;;;;4979881;28;19930;-93
2023/03/20 00:21:54;;;;;;;;;;;10.20;99.90;;;;;;4983400;28;20324;-92
2023/03/20 00:24:22;;;;;;;;;;;10.20;99.90;;;;;;5002074;28;19930;-92
2023/03/20 00:26:53;;;;;;;;;;;10.10;99.90;;;;;;4984361;28;19926;-93
2023/03/20 00:29:22;;;;;;;;;;;10.10;99.90;;;;;;4990457;28;19977;-92
2023/03/20 00:31:49;;;;;;;;;;;10.10;99.90;;;;;;4989285;28;19930;-96
2023/03/20 00:34:18;;;;;;;;;;;10.10;99.90;;;;;;4996413;28;19929;-95
2023/03/20 00:36:46;;;;;;;;;;;10.10;99.90;;;;;;4990653;28;19937;-94
2023/03/20 00:39:13;;;;;;;;;;;10.10;99.90;;;;;;4993678;28;20177;-94
2023/03/20 00:41:44;;;;;;;;;;;10.10;99.90;;;;;;4983210;28;19926;-94
2023/03/20 00:44:18;;;;;;;;;;;10.10;99.90;;;;;;4996257;28;20312;-92
2023/03/20 00:46:46;;;;;;;;;;;10.00;99.90;;;;;;4980685;28;19936;-92
2023/03/20 00:49:13;;;;;;;;;;;10.00;99.90;;;;;;4977449;28;19933;-94
2023/03/20 00:51:41;;;;;;;;;;;10.00;99.90;;;;;;4981204;28;19930;-93
2023/03/20 00:54:12;;;;;;;;;;;10.00;99.90;;;;;;4980375;28;19926;-92
2023/03/20 00:56:41;;;;;;;;;;;10.00;99.90;;;;;;4979785;28;19933;-93
2023/03/20 00:59:14;;;;;;;;;;;10.00;99.90;;;;;;4987706;28;19926;-93
2023/03/20 01:01:42;;;;;;;;;;;10.00;99.90;;;;;;4980384;28;19940;-92
2023/03/20 01:04:10;;;;;;;;;;;10.00;99.90;;;;;;4980713;28;20787;-93
2023/03/20 01:06:37;;;;;;;;;;;10.00;99.90;;;;;;4981854;28;19997;-93
2023/03/20 01:09:04;;;;;;;;;;;9.90;99.90;;;;;;4980587;28;20001;-92
2023/03/20 01:11:31;;;;;;;;;;;9.90;99.90;;;;;;4981515;28;19941;-93
2023/03/20 01:13:58;;;;;;;;;;;9.90;99.90;;;;;;4984468;28;19932;-93
2023/03/20 01:16:27;;;;;;;;;;;9.90;99.90;;;;;;4981064;28;20336;-94
2023/03/20 01:18:54;;;;;;;;;;;9.90;99.90;;;;;;4981536;28;19926;-95
2023/03/20 01:21:21;;;;;;;;;;;9.90;99.90;;;;;;4977921;28;19932;-93
2023/03/20 01:23:48;;;;;;;;;;;9.90;99.90;;;;;;4980276;28;20404;-95
2023/03/20 01:26:20;;;;;;;;;;;9.90;99.90;;;;;;4980007;28;19934;-94
2023/03/20 01:28:47;;;;;;;;;;;9.80;99.90;;;;;;4984069;28;19933;-92
2023/03/20 01:31:14;;;;;;;;;;;9.80;99.90;;;;;;4977521;28;20126;-94
2023/03/20 01:33:43;;;;;;;;;;;9.90;99.90;;;;;;4975784;28;20315;-93
2023/03/20 01:36:10;;;;;;;;;;;9.80;99.90;;;;;;4974003;28;20447;-92
2023/03/20 01:38:38;;;;;;;;;;;9.80;99.90;;;;;;4977437;28;20348;-92
2023/03/20 01:41:07;;;;;;;;;;;9.80;99.90;;;;;;4973123;28;20165;-93
2023/03/20 01:43:37;;;;;;;;;;;9.80;99.90;;;;;;4978837;28;19940;-92
2023/03/20 01:46:13;;;;;;;;;;;9.70;99.90;;;;;;4978650;28;19941;-92
2023/03/20 01:51:35;;;;;;;;;;;9.70;99.90;;;;;;5091928;27;19924;-72
2023/03/20 01:54:10;;;;;;;;;;;9.70;99.90;;;;;;5084991;28;19986;-72
2023/03/20 01:56:48;;;;;;;;;;;9.70;99.90;;;;;;5072814;28;19933;-71
2023/03/20 01:59:17;;;;;;;;;;;9.70;99.90;;;;;;5074827;28;19986;-71
2023/03/20 02:01:44;;;;;;;;;;;9.60;99.90;;;;;;5062388;28;19954;-71
2023/03/20 02:04:14;;;;;;;;;;;9.60;99.90;;;;;;5070731;28;19978;-72
2023/03/20 02:06:56;;;;;;;;;;;9.60;99.90;;;;;;5070266;28;19933;-71
2023/03/20 02:09:46;;;;;;;;;;;9.60;99.90;;;;;;5069420;28;20337;-71
2023/03/20 02:12:18;;;;;;;;;;;9.60;99.90;;;;;;5069542;28;19963;-71
2023/03/20 02:14:45;;;;;;;;;;;9.60;99.90;;;;;;5069393;28;20014;-71
2023/03/20 02:17:32;;;;;;;;;;;9.50;99.90;;;;;;5069376;28;19924;-71
2023/03/20 02:20:13;;;;;;;;;;;9.60;99.90;;;;;;5077733;28;19928;-68
2023/03/20 02:22:59;;;;;;;;;;;9.50;99.90;;;;;;5066340;28;20537;-71
2023/03/20 02:25:41;;;;;;;;;;;9.50;99.90;;;;;;5089698;28;19936;-71
2023/03/20 02:28:26;;;;;;;;;;;9.50;99.90;;;;;;5097054;28;20018;-72
2023/03/20 02:31:11;;;;;;;;;;;9.50;99.90;;;;;;5083726;28;20407;-71
2023/03/20 02:33:55;;;;;;;;;;;9.50;99.90;;;;;;5071828;28;19925;-71
2023/03/20 02:36:42;;;;;;;;;;;9.40;99.90;;;;;;5103345;22;19983;-76
2023/03/20 02:39:16;;;;;;;;;;;9.40;99.90;;;;;;5013860;28;22031;-77
2023/03/20 02:41:45;;;;;;;;;;;9.40;99.90;;;;;;5031355;28;19964;-76
2023/03/20 02:44:14;;;;;;;;;;;9.40;99.90;;;;;;5033142;28;19931;-77
2023/03/20 02:46:47;;;;;;;;;;;9.40;99.90;;;;;;5044031;28;20419;-76
2023/03/20 02:49:32;;;;;;;;;;;9.40;99.90;;;;;;5047863;28;19926;-77
2023/03/20 02:52:02;;;;;;;;;;;9.30;99.90;;;;;;5035591;28;20002;-77
2023/03/20 02:54:34;;;;;;;;;;;9.30;99.90;;;;;;5034629;28;19933;-76
2023/03/20 02:57:04;;;;;;;;;;;9.30;99.90;;;;;;5038465;28;20117;-76
2023/03/20 02:59:36;;;;;;;;;;;9.30;99.90;;;;;;5035272;28;20377;-77
2023/03/20 03:02:06;;;;;;;;;;;9.30;99.90;;;;;;5038311;28;19925;-77
2023/03/20 03:04:35;;;;;;;;;;;9.30;99.90;;;;;;5019318;28;19925;-76
2023/03/20 03:07:03;;;;;;;;;;;9.20;99.90;;;;;;5025387;28;19975;-76
2023/03/20 03:09:35;;;;;;;;;;;9.20;99.90;;;;;;5019832;28;20046;-77
2023/03/20 03:12:04;;;;;;;;;;;9.20;99.90;;;;;;5019936;28;19977;-77
2023/03/20 03:14:35;;;;;;;;;;;9.20;99.90;;;;;;5021016;28;20409;-77
2023/03/20 03:17:04;;;;;;;;;;;9.20;99.90;;;;;;5041787;28;19925;-77
2023/03/20 03:19:32;;;;;;;;;;;9.20;99.90;;;;;;5030999;28;19976;-77
2023/03/20 03:21:59;;;;;;;;;;;9.20;99.90;;;;;;5035961;28;19925;-76
2023/03/20 03:24:30;;;;;;;;;;;9.20;99.90;;;;;;5033878;28;19932;-76
2023/03/20 03:26:59;;;;;;;;;;;9.20;99.90;;;;;;5028693;28;20369;-76
2023/03/20 03:29:28;;;;;;;;;;;9.10;99.90;;;;;;5039930;28;19937;-77
2023/03/20 03:31:56;;;;;;;;;;;9.10;99.90;;;;;;5018562;28;19933;-76
2023/03/20 03:34:23;;;;;;;;;;;9.10;99.90;;;;;;5021504;28;19929;-77
2023/03/20 03:36:54;;;;;;;;;;;9.10;99.90;;;;;;5014762;28;19929;-76
2023/03/20 03:39:24;;;;;;;;;;;9.10;99.90;;;;;;5032852;28;20003;-77
2023/03/20 03:41:53;;;;;;;;;;;9.10;99.90;;;;;;5025299;28;20018;-77
2023/03/20 03:44:23;;;;;;;;;;;9.00;99.90;;;;;;5037877;28;20319;-77
2023/03/20 03:46:53;;;;;;;;;;;9.00;99.90;;;;;;5040734;28;19944;-76
2023/03/20 03:49:21;;;;;;;;;;;9.00;99.90;;;;;;5026222;28;19979;-77
2023/03/20 03:51:53;;;;;;;;;;;9.00;99.90;;;;;;5036930;28;19925;-77
2023/03/20 03:54:22;;;;;;;;;;;9.00;99.90;;;;;;5022798;28;19979;-76
2023/03/20 03:57:10;;;;;;;;;;;9.00;99.90;;;;;;5025657;28;19925;-76
2023/03/20 03:59:40;;;;;;;;;;;9.00;99.90;;;;;;5042027;28;19925;-77
2023/03/20 04:02:08;;;;;;;;;;;9.00;99.90;;;;;;5024529;28;19925;-77
2023/03/20 04:04:36;;;;;;;;;;;8.90;99.90;;;;;;5032741;28;19975;-77
2023/03/20 04:07:03;;;;;;;;;;;8.90;99.90;;;;;;5038250;28;19933;-76
2023/03/20 04:09:31;;;;;;;;;;;8.90;99.90;;;;;;5023479;28;19925;-76
2023/03/20 04:11:57;;;;;;;;;;;8.90;99.90;;;;;;5029791;28;19933;-74
2023/03/20 04:14:24;;;;;;;;;;;8.90;99.90;;;;;;5019056;28;19929;-76
2023/03/20 04:16:52;;;;;;;;;;;8.90;99.90;;;;;;5033348;28;20427;-76
2023/03/20 04:19:19;;;;;;;;;;;8.90;99.90;;;;;;5034821;28;19925;-76
2023/03/20 04:21:46;;;;;;;;;;;8.90;99.90;;;;;;5021024;28;20018;-77
2023/03/20 04:24:14;;;;;;;;;;;8.80;99.90;;;;;;5021258;28;19930;-76
2023/03/20 04:26:40;;;;;;;;;;;8.80;99.90;;;;;;5017951;28;19925;-77
2023/03/20 04:29:07;;;;;;;;;;;8.80;99.90;;;;;;5015459;28;19925;-77
2023/03/20 04:31:48;;;;;;;;;;;8.80;99.90;;;;;;5031325;28;19933;-76
2023/03/20 04:34:19;;;;;;;;;;;8.80;99.90;;;;;;5011087;28;19934;-77
2023/03/20 04:37:07;;;;;;;;;;;8.80;99.90;;;;;;5016497;28;19940;-77
2023/03/20 04:39:49;;;;;;;;;;;8.80;99.90;;;;;;5018614;28;20039;-76
2023/03/20 04:42:16;;;;;;;;;;;8.80;99.90;;;;;;5008187;28;19932;-77
2023/03/20 04:44:43;;;;;;;;;;;8.80;99.90;;;;;;5012110;28;19929;-77
2023/03/20 04:47:16;;;;;;;;;;;8.80;99.90;;;;;;5019898;28;19941;-78
2023/03/20 04:49:45;;;;;;;;;;;8.80;99.90;;;;;;5018172;28;19925;-77
2023/03/20 04:52:12;;;;;;;;;;;8.80;99.90;;;;;;5018918;28;20091;-76
2023/03/20 04:54:41;;;;;;;;;;;8.70;99.90;;;;;;5021753;28;20015;-77
2023/03/20 04:57:08;;;;;;;;;;;8.70;99.90;;;;;;5028806;28;20552;-77
2023/03/20 04:59:36;;;;;;;;;;;8.70;99.90;;;;;;5032266;28;19940;-76
2023/03/20 05:02:05;;;;;;;;;;;8.70;99.90;;;;;;5010398;28;21061;-77
2023/03/20 05:04:34;;;;;;;;;;;8.70;99.90;;;;;;5012640;28;19925;-77
2023/03/20 05:07:03;;;;;;;;;;;8.70;99.90;;;;;;5033821;28;20016;-77
2023/03/20 05:09:39;;;;;;;;;;;8.70;99.90;;;;;;5021641;28;19925;-77
2023/03/20 05:12:08;;;;;;;;;;;8.70;99.90;;;;;;5035699;28;20027;-78
2023/03/20 05:15:01;;;;;;;;;;;8.70;99.90;;;;;;5015889;28;19926;-77
2023/03/20 05:18:00;;;;;;;;;;;8.70;99.90;;;;;;4990670;28;20280;-77
2023/03/20 05:20:45;;;;;;;;;;;8.70;99.90;;;;;;5017141;28;19925;-77
2023/03/20 05:23:42;;;;;;;;;;;8.60;99.90;;;;;;5018313;28;20307;-77
2023/03/20 05:26:27;;;;;;;;;;;8.60;99.90;;;;;;5015639;28;20044;-77
2023/03/20 05:29:13;;;;;;;;;;;8.60;99.90;;;;;;5017419;28;19936;-77
2023/03/20 05:31:57;;;;;;;;;;;8.60;99.90;;;;;;5016551;28;20363;-77
2023/03/20 05:34:32;;;;;;;;;;;8.60;99.90;;;;;;5031514;28;19936;-78
2023/03/20 05:37:12;;;;;;;;;;;8.60;99.90;;;;;;5016907;28;19929;-78
2023/03/20 05:40:05;;;;;;;;;;;8.60;99.90;;;;;;5036641;28;19968;-77
2023/03/20 05:43:08;;;;;;;;;;;8.60;99.90;;;;;;4979165;28;20112;-77
2023/03/20 05:45:57;;;;;;;;;;;8.60;99.90;;;;;;5031076;28;20018;-77
2023/03/20 05:48:35;;;;;;;;;;;8.60;99.90;;;;;;5016788;28;19937;-78
2023/03/20 05:51:26;;;;;;;;;;;8.60;99.90;;;;;;5004284;28;19925;-77
2023/03/20 05:54:03;;;;;;;;;;;8.60;99.90;;;;;;5019103;28;19939;-76
2023/03/20 05:56:31;;;;;;;;;;;8.50;99.90;;;;;;5011512;28;19932;-76
2023/03/20 05:59:12;;;;;;;;;;;8.50;99.90;;;;;;5017671;28;19933;-77
2023/03/20 06:02:02;;;;;;;;;;;8.50;99.90;;;;;;5015119;28;19929;-76
2023/03/20 06:04:33;;;;;;;;;;;8.50;99.90;;;;;;5029251;28;19925;-76
2023/03/20 06:07:23;;;;;;;;;;;8.50;99.90;;;;;;5015505;28;19940;-77
2023/03/20 06:09:59;;;;;;;;;;;8.50;99.90;;;;;;5014744;28;20343;-76
2023/03/20 06:12:28;;;;;;;;;;;8.50;99.90;;;;;;5030302;28;19936;-75
2023/03/20 06:14:55;;;;;;;;;;;8.50;99.90;;;;;;5033686;28;20529;-76
2023/03/20 06:17:22;;;;;;;;;;;8.50;99.90;;;;;;5009754;28;19925;-77
2023/03/20 06:19:54;;;;;;;;;;;8.50;99.90;;;;;;5015535;28;19937;-77
2023/03/20 06:22:22;;;;;;;;;;;8.50;99.90;;;;;;5030989;28;19952;-77
2023/03/20 06:24:49;;;;;;;;;;;8.50;99.90;;;;;;5016733;28;19955;-76
2023/03/20 06:27:20;;;;;;;;;;;8.50;99.90;;;;;;5015885;28;19945;-77
2023/03/20 06:29:50;;;;;;;;;;;8.40;99.90;;;;;;5022154;28;19932;-77
2023/03/20 06:32:22;;;;;;;;;;;8.40;99.90;;;;;;5039284;28;20339;-77
2023/03/20 06:34:51;;;;;;;;;;;8.40;99.90;;;;;;5032437;28;19944;-77
2023/03/20 06:37:18;;;;;;;;;;;8.40;99.90;;;;;;5024432;28;20463;-76
2023/03/20 06:39:46;;;;;;;;;;;8.40;99.90;;;;;;5040200;28;20363;-77
2023/03/20 06:42:14;;;;;;;;;;;8.40;99.90;;;;;;5035082;28;20085;-77
2023/03/20 06:44:41;;;;;;;;;;;8.40;99.90;;;;;;5025048;28;20383;-77
2023/03/20 06:47:15;;;;;;;;;;;8.40;99.90;;;;;;5037170;28;20290;-77
2023/03/20 06:49:42;;;;;;;;;;;8.40;99.90;;;;;;5040916;28;20012;-77
2023/03/20 06:52:15;;;;;;;;;;;8.40;99.90;;;;;;5023617;28;19939;-77
2023/03/20 06:54:45;;;;;;;;;;;8.40;99.90;;;;;;5024535;28;20385;-77
2023/03/20 06:57:12;;;;;;;;;;;8.40;99.90;;;;;;5023189;28;19940;-77
2023/03/20 06:59:39;;;;;;;;;;;8.40;99.90;;;;;;5018185;28;20379;-77
2023/03/20 07:02:07;;;;;;;;;;;8.40;99.90;;;;;;5021622;28;19925;-76
2023/03/20 07:04:35;;;;;;;;;;;8.40;99.90;;;;;;5041174;28;20361;-77
2023/03/20 07:07:03;;;;;;;;;;;8.40;99.90;;;;;;5042244;28;19939;-76
2023/03/20 07:09:30;;;;;;;;;;;8.30;99.90;;;;;;5020630;28;20008;-76
2023/03/20 07:11:57;;;;;;;;;;;8.30;99.90;;;;;;5019247;28;20008;-77
2023/03/20 07:14:24;;;;;;;;;;;8.30;99.90;;;;;;5027865;28;19961;-77
2023/03/20 07:16:58;;;;;;;;;;;8.30;99.90;;;;;;5036895;28;19933;-77
2023/03/20 07:19:25;;;;;;;;;;;8.30;99.90;;;;;;5024256;28;19925;-77
2023/03/20 07:22:00;;;;;;;;;;;8.30;99.90;;;;;;5037260;28;19933;-77
2023/03/20 07:24:29;;;;;;;;;;;8.30;99.90;;;;;;5040986;28;20435;-77
2023/03/20 07:26:57;;;;;;;;;;;8.30;99.90;;;;;;5038050;28;20288;-77
2023/03/20 07:29:25;;;;;;;;;;;8.30;99.90;;;;;;5022151;28;19932;-77
2023/03/20 07:31:52;;;;;;;;;;;8.30;99.90;;;;;;5039811;28;20383;-77
2023/03/20 07:34:29;;;;;;;;;;;8.30;99.90;;;;;;5041176;28;19929;-77
2023/03/20 07:36:59;;;;;;;;;;;8.30;99.90;;;;;;5024721;28;22388;-77
2023/03/20 07:39:26;;;;;;;;;;;8.30;99.90;;;;;;5022512;28;20410;-77
2023/03/20 07:42:25;;;;;;;;;;;8.30;99.90;;;;;;5018553;28;19925;-77
2023/03/20 07:45:08;;;;;;;;;;;8.30;99.90;;;;;;5031625;28;20056;-77
2023/03/20 07:47:36;;;;;;;;;;;8.30;99.90;;;;;;5024690;28;19933;-77
2023/03/20 07:50:05;;;;;;;;;;;8.30;99.90;;;;;;5017584;28;20347;-77
2023/03/20 07:52:33;;;;;;;;;;;8.30;99.90;;;;;;5023503;28;19987;-77
2023/03/20 07:55:00;;;;;;;;;;;8.30;99.90;;;;;;5041246;28;20350;-77
2023/03/20 07:57:27;;;;;;;;;;;8.30;99.90;;;;;;5020116;28;19929;-77
2023/03/20 07:59:56;;;;;;;;;;;8.30;99.90;;;;;;5038621;28;19968;-77
2023/03/20 08:02:23;;;;;;;;;;;8.30;99.90;;;;;;5022910;28;19932;-77
2023/03/20 08:04:50;;;;;;;;;;;8.30;99.90;;;;;;5036644;28;20469;-77
2023/03/20 08:07:16;;;;;;;;;;;8.30;99.90;;;;;;5020816;28;19933;-77
2023/03/20 08:09:45;;;;;;;;;;;8.30;99.90;;;;;;5019054;28;20024;-77
2023/03/20 08:12:12;;;;;;;;;;;8.30;99.90;;;;;;5022942;28;20008;-77
2023/03/20 08:14:39;;;;;;;;;;;8.30;99.90;;;;;;5021449;28;19933;-77
2023/03/20 08:17:06;;;;;;;;;;;8.30;99.90;;;;;;5023950;28;20455;-77
2023/03/20 08:19:32;;;;;;;;;;;8.30;99.90;;;;;;5023367;28;19929;-77
2023/03/20 08:21:59;;;;;;;;;;;8.30;99.90;;;;;;5020715;28;19925;-77
2023/03/20 08:24:26;;;;;;;;;;;8.30;99.90;;;;;;5015521;28;19933;-76
2023/03/20 08:26:54;;;;;;;;;;;8.30;99.90;;;;;;5041273;28;19949;-77
2023/03/20 08:29:21;;;;;;;;;;;8.30;99.90;;;;;;5018675;28;20636;-77
2023/03/20 08:31:48;;;;;;;;;;;8.40;99.90;;;;;;5024447;28;19925;-77
2023/03/20 08:34:15;;;;;;;;;;;8.40;99.90;;;;;;5023430;28;19925;-77
2023/03/20 08:36:42;;;;;;;;;;;8.40;99.90;;;;;;5023756;28;19929;-77
2023/03/20 08:39:09;;;;;;;;;;;8.40;99.90;;;;;;5022702;28;19926;-77
2023/03/20 08:41:37;;;;;;;;;;;8.40;99.90;;;;;;5019749;28;19929;-77
2023/03/20 08:44:06;;;;;;;;;;;8.40;99.90;;;;;;5021356;28;19925;-77
2023/03/20 08:46:32;;;;;;;;;;;8.40;99.90;;;;;;5021731;28;19936;-77
2023/03/20 08:48:59;;;;;;;;;;;8.40;99.90;;;;;;5026697;28;20008;-77
2023/03/20 08:51:26;;;;;;;;;;;8.50;99.90;;;;;;5020626;28;20023;-76
2023/03/20 08:53:53;;;;;;;;;;;8.50;99.90;;;;;;5020377;28;20391;-76
2023/03/20 08:56:20;;;;;;;;;;;8.50;99.90;;;;;;5024343;28;19925;-77
2023/03/20 08:58:47;;;;;;;;;;;8.50;99.90;;;;;;5018991;28;20036;-77
2023/03/20 09:01:16;;;;;;;;;;;8.50;99.90;;;;;;5022253;28;19933;-77
2023/03/20 09:03:43;;;;;;;;;;;8.50;99.90;;;;;;5033361;28;19925;-77
2023/03/20 09:06:10;;;;;;;;;;;8.50;99.90;;;;;;5024678;28;19932;-77
2023/03/20 09:08:37;;;;;;;;;;;8.50;99.90;;;;;;5024372;28;19926;-77
2023/03/20 09:11:05;;;;;;;;;;;8.60;99.90;;;;;;5022042;28;19925;-77
2023/03/20 09:13:31;;;;;;;;;;;8.60;99.90;;;;;;5022165;28;19933;-77
2023/03/20 09:15:58;;;;;;;;;;;8.60;99.90;;;;;;5024456;28;19935;-77
2023/03/20 09:18:26;;;;;;;;;;;8.70;99.90;;;;;;5022796;28;20020;-76
2023/03/20 09:20:55;;;;;;;;;;;8.70;99.90;;;;;;5018701;28;20304;-77
2023/03/20 09:23:22;;;;;;;;;;;8.70;99.90;;;;;;5035545;28;19929;-77
2023/03/20 09:25:49;;;;;;;;;;;8.70;99.90;;;;;;5017878;28;19964;-77
2023/03/20 09:28:16;;;;;;;;;;;8.70;99.90;;;;;;5041212;28;20343;-77
2023/03/20 09:30:43;;;;;;;;;;;8.70;99.90;;;;;;5019761;28;19933;-77
2023/03/20 09:33:10;;;;;;;;;;;8.80;99.90;;;;;;5019132;28;20392;-77
2023/03/20 09:35:38;;;;;;;;;;;8.80;99.90;;;;;;5021177;28;19944;-77
2023/03/20 09:38:05;;;;;;;;;;;8.80;99.90;;;;;;5030463;28;19944;-77
2023/03/20 09:40:38;;;;;;;;;;;8.80;99.90;;;;;;5026277;28;19933;-77
2023/03/20 09:43:08;;;;;;;;;;;8.80;99.90;;;;;;5019982;28;19952;-77
2023/03/20 09:45:40;;;;;;;;;;;8.80;99.90;;;;;;5017795;28;20024;-77
2023/03/20 09:48:11;;;;;;;;;;;8.80;99.90;;;;;;5037717;28;20390;-77
2023/03/20 09:50:43;;;;;;;;;;;8.80;99.90;;;;;;5036755;28;19940;-76
2023/03/20 09:53:11;;;;;;;;;;;8.80;99.90;;;;;;5019486;28;19925;-77
2023/03/20 09:55:40;;;;;;;;;;;8.80;99.90;;;;;;5020071;28;19926;-77
2023/03/20 09:58:11;;;;;;;;;;;8.80;99.90;;;;;;5021561;28;20762;-77
2023/03/20 10:00:40;;;;;;;;;;;8.80;99.90;;;;;;5026340;28;20645;-78
2023/03/20 10:03:11;;;;;;;;;;;8.80;99.90;;;;;;5014787;28;20451;-77
2023/03/20 10:05:45;;;;;;;;;;;8.80;99.90;;;;;;5019229;28;19926;-77
2023/03/20 10:08:15;;;;;;;;;;;8.80;99.90;;;;;;5028787;28;19925;-77
2023/03/20 10:10:46;;;;;;;;;;;8.80;99.90;;;;;;5038167;28;19933;-77
2023/03/20 10:13:28;;;;;;;;;;;8.80;99.90;;;;;;5024649;28;20392;-77
2023/03/20 10:15:57;;;;;;;;;;;8.80;99.90;;;;;;5027623;28;19929;-77
2023/03/20 10:18:25;;;;;;;;;;;8.90;99.90;;;;;;5025449;28;19925;-77
2023/03/20 10:20:58;;;;;;;;;;;8.90;99.90;;;;;;5019614;28;19925;-77
2023/03/20 10:23:27;;;;;;;;;;;8.90;99.90;;;;;;5024849;28;19925;-76
2023/03/20 10:25:56;;;;;;;;;;;8.90;99.90;;;;;;5025591;28;19925;-77
2023/03/20 10:28:27;;;;;;;;;;;8.90;99.90;;;;;;5023798;28;19931;-76
2023/03/20 10:31:00;;;;;;;;;;;8.90;99.90;;;;;;5024217;28;19925;-77
2023/03/20 10:33:33;;;;;;;;;;;8.90;99.90;;;;;;5039079;28;19929;-77
2023/03/20 10:36:08;;;;;;;;;;;9.00;99.90;;;;;;5024610;28;19932;-77
2023/03/20 10:38:39;;;;;;;;;;;9.00;99.90;;;;;;5027233;28;20379;-77
2023/03/20 10:41:09;;;;;;;;;;;9.00;99.90;;;;;;5020293;28;19983;-77
2023/03/20 10:43:38;;;;;;;;;;;9.00;99.90;;;;;;5021062;28;20401;-77
2023/03/20 10:46:07;;;;;;;;;;;9.00;99.90;;;;;;5026050;28;19925;-77
2023/03/20 10:48:36;;;;;;;;;;;9.00;99.90;;;;;;5027840;28;20307;-78
2023/03/20 10:51:05;;;;;;;;;;;9.00;99.90;;;;;;5041541;28;19941;-77
2023/03/20 10:53:36;;;;;;;;;;;9.10;99.90;;;;;;5042512;28;19929;-77
2023/03/20 10:56:05;;;;;;;;;;;9.10;99.90;;;;;;5022380;28;20572;-77
2023/03/20 10:58:35;;;;;;;;;;;9.10;99.90;;;;;;5037479;28;20454;-76
2023/03/20 11:01:02;;;;;;;;;;;9.10;99.90;;;;;;5023412;28;19932;-76
2023/03/20 11:03:30;;;;;;;;;;;9.10;99.90;;;;;;5025332;28;19940;-77
2023/03/20 11:06:00;;;;;;;;;;;9.10;99.90;;;;;;5020076;28;20087;-77
2023/03/20 11:08:33;;;;;;;;;;;9.10;99.90;;;;;;5021552;28;19968;-77
2023/03/20 11:11:01;;;;;;;;;;;9.10;99.90;;;;;;5039139;28;19980;-77
2023/03/20 11:13:30;;;;;;;;;;;9.20;99.90;;;;;;5024185;28;19979;-76
2023/03/20 11:15:57;;;;;;;;;;;9.20;99.90;;;;;;5023069;28;20490;-77
2023/03/20 11:18:24;;;;;;;;;;;9.20;99.90;;;;;;5021766;28;19950;-77
2023/03/20 11:20:53;;;;;;;;;;;9.20;99.90;;;;;;5043566;28;19925;-77
2023/03/20 11:23:24;;;;;;;;;;;9.20;99.90;;;;;;5026228;28;20476;-77
2023/03/20 11:25:53;;;;;;;;;;;9.20;99.90;;;;;;5032803;28;19933;-77
2023/03/20 11:28:21;;;;;;;;;;;9.20;99.90;;;;;;5026517;28;20268;-77
2023/03/20 11:30:50;;;;;;;;;;;9.30;99.90;;;;;;5022807;28;19925;-77
2023/03/20 11:33:17;;;;;;;;;;;9.20;99.90;;;;;;5020957;28;19994;-77
2023/03/20 11:35:45;;;;;;;;;;;9.30;99.90;;;;;;5023276;28;19967;-77
2023/03/20 11:38:14;;;;;;;;;;;9.30;99.90;;;;;;5028076;28;19995;-77
2023/03/20 11:40:41;;;;;;;;;;;9.30;99.90;;;;;;5022402;28;19932;-77
2023/03/20 11:43:12;;;;;;;;;;;9.40;99.90;;;;;;5022778;28;19930;-77
2023/03/20 11:45:40;;;;;;;;;;;9.40;99.90;;;;;;5025335;28;20380;-77
2023/03/20 11:48:14;;;;;;;;;;;9.40;99.90;;;;;;5027435;28;20375;-77
2023/03/20 11:50:43;;;;;;;;;;;9.40;99.90;;;;;;5029022;28;19971;-76
2023/03/20 11:53:19;;;;;;;;;;;9.40;99.90;;;;;;5039775;28;19929;-77
2023/03/20 11:55:56;;;;;;;;;;;9.40;99.90;;;;;;5023249;28;19940;-77
2023/03/20 11:58:24;;;;;;;;;;;9.40;99.90;;;;;;5025926;28;19971;-76
2023/03/20 12:00:53;;;;;;;;;;;9.40;99.90;;;;;;5025107;28;19944;-77
2023/03/20 12:03:39;;;;;;;;;;;9.40;99.90;;;;;;5020288;28;19925;-77
2023/03/20 12:06:06;;;;;;;;;;;9.40;99.90;;;;;;5024419;28;19926;-77
2023/03/20 12:08:34;;;;;;;;;;;9.50;99.90;;;;;;5025228;28;19941;-77
2023/03/20 12:11:03;;;;;;;;;;;9.50;99.90;;;;;;5017978;28;19987;-77
2023/03/20 12:13:33;;;;;;;;;;;9.50;99.90;;;;;;5026499;28;19925;-77
2023/03/20 12:16:02;;;;;;;;;;;9.50;99.90;;;;;;5024117;28;20339;-77
2023/03/20 12:18:31;;;;;;;;;;;9.50;99.90;;;;;;5024161;28;19932;-77
2023/03/20 12:21:02;;;;;;;;;;;9.50;99.90;;;;;;5023401;28;19937;-77
2023/03/20 12:23:32;;;;;;;;;;;9.50;99.90;;;;;;5026579;28;19928;-77
2023/03/20 12:26:01;;;;;;;;;;;9.60;99.90;;;;;;5024834;28;19934;-77
2023/03/20 12:28:30;;;;;;;;;;;9.60;99.90;;;;;;5025786;28;19929;-77
2023/03/20 12:31:11;;;;;;;;;;;9.60;99.90;;;;;;5021790;28;19925;-77
2023/03/20 12:33:41;;;;;;;;;;;9.60;99.90;;;;;;5028122;28;20143;-77
2023/03/20 12:36:12;;;;;;;;;;;9.60;99.90;;;;;;5019332;28;20000;-77
2023/03/20 12:38:39;;;;;;;;;;;9.60;99.90;;;;;;5020536;28;20416;-76
2023/03/20 12:41:11;;;;;;;;;;;9.60;99.90;;;;;;5024550;28;19983;-77
2023/03/20 12:43:44;;;;;;;;;;;9.60;99.90;;;;;;5020930;28;19928;-77
2023/03/20 12:46:25;;;;;;;;;;;9.70;99.90;;;;;;5018429;28;19979;-77
2023/03/20 12:48:55;;;;;;;;;;;9.70;99.90;;;;;;5021625;28;19932;-77
2023/03/20 12:51:27;;;;;;;;;;;9.70;99.90;;;;;;5023209;28;19975;-77
2023/03/20 12:53:59;;;;;;;;;;;9.70;99.90;;;;;;5016760;28;19929;-77
2023/03/20 12:56:37;;;;;;;;;;;9.70;99.90;;;;;;5019835;28;19933;-77
2023/03/20 12:59:07;;;;;;;;;;;9.70;99.90;;;;;;5021223;28;20354;-77
2023/03/20 13:01:39;;;;;;;;;;;9.70;99.90;;;;;;5020771;28;19941;-77
2023/03/20 13:04:16;;;;;;;;;;;9.80;99.90;;;;;;5006766;28;20330;-77
2023/03/20 13:06:50;;;;;;;;;;;9.80;99.90;;;;;;5021361;28;19975;-77
2023/03/20 13:09:26;;;;;;;;;;;9.70;99.90;;;;;;5018508;28;19925;-76
2023/03/20 13:11:59;;;;;;;;;;;9.80;99.90;;;;;;5021491;28;20036;-76
2023/03/20 13:14:28;;;;;;;;;;;9.90;99.90;;;;;;5019182;28;20346;-77
2023/03/20 13:17:01;;;;;;;;;;;9.90;99.90;;;;;;5022883;28;20387;-78
2023/03/20 13:19:32;;;;;;;;;;;9.90;99.90;;;;;;5024775;28;19929;-76
2023/03/20 13:22:04;;;;;;;;;;;9.90;99.90;;;;;;5018780;28;19925;-77
2023/03/20 13:24:35;;;;;;;;;;;10.00;99.90;;;;;;5007593;28;19925;-77
2023/03/20 13:27:06;;;;;;;;;;;9.90;99.90;;;;;;5028453;28;19925;-77
2023/03/20 13:29:36;;;;;;;;;;;10.00;99.90;;;;;;5006419;28;20032;-77
2023/03/20 13:32:10;;;;;;;;;;;10.00;99.90;;;;;;5017433;28;20403;-77
2023/03/20 13:34:45;;;;;;;;;;;10.00;99.90;;;;;;5019428;28;19925;-77
2023/03/20 13:37:15;;;;;;;;;;;10.00;99.90;;;;;;5019430;28;20016;-77
2023/03/20 13:39:44;;;;;;;;;;;10.00;99.90;;;;;;5016355;28;19933;-77
2023/03/20 13:42:12;;;;;;;;;;;10.10;99.90;;;;;;5021914;28;20023;-77
2023/03/20 13:44:40;;;;;;;;;;;10.10;99.90;;;;;;5022515;28;19990;-77
2023/03/20 13:47:11;;;;;;;;;;;10.10;99.90;;;;;;5016858;28;20461;-76
2023/03/20 13:49:40;;;;;;;;;;;10.10;99.90;;;;;;5011181;28;20434;-77
2023/03/20 13:52:09;;;;;;;;;;;10.20;99.90;;;;;;5004461;28;19990;-77
2023/03/20 13:54:41;;;;;;;;;;;10.20;99.90;;;;;;5006014;28;19932;-77
2023/03/20 13:57:12;;;;;;;;;;;10.20;99.90;;;;;;5016813;28;19965;-77
2023/03/20 13:59:50;;;;;;;;;;;10.30;99.90;;;;;;5020537;28;19933;-77
2023/03/20 14:02:27;;;;;;;;;;;10.20;99.90;;;;;;5022179;28;19926;-77
2023/03/20 14:04:58;;;;;;;;;;;10.30;99.90;;;;;;5034684;28;20023;-77
2023/03/20 14:07:29;;;;;;;;;;;10.30;99.90;;;;;;5020238;28;19996;-77
2023/03/20 14:09:56;;;;;;;;;;;10.30;99.90;;;;;;5038691;28;20554;-77
2023/03/20 14:12:25;;;;;;;;;;;10.30;99.90;;;;;;5015396;28;19929;-76
2023/03/20 14:14:54;;;;;;;;;;;10.30;99.90;;;;;;5018995;28;20006;-77
2023/03/20 14:17:24;;;;;;;;;;;10.30;99.90;;;;;;5035849;28;19979;-77
2023/03/20 14:19:52;;;;;;;;;;;10.40;99.90;;;;;;5035333;28;20493;-77
2023/03/20 14:22:20;;;;;;;;;;;10.40;99.90;;;;;;5020747;28;19975;-77
2023/03/20 14:24:54;;;;;;;;;;;10.40;99.90;;;;;;5036607;28;19925;-77
2023/03/20 14:27:22;;;;;;;;;;;10.50;99.90;;;;;;5022450;28;20319;-77
2023/03/20 14:29:49;;;;;;;;;;;10.50;99.90;;;;;;5018667;28;19975;-77
2023/03/20 14:32:31;;;;;;;;;;;10.50;99.90;;;;;;5022664;28;19925;-77
2023/03/20 14:35:00;;;;;;;;;;;10.50;99.90;;;;;;5025114;28;19933;-77
2023/03/20 14:37:28;;;;;;;;;;;10.50;99.90;;;;;;5021750;28;20020;-77
2023/03/20 14:39:59;;;;;;;;;;;10.60;99.90;;;;;;5019978;28;19933;-76
2023/03/20 14:42:35;;;;;;;;;;;10.60;99.90;;;;;;5024769;28;19925;-77
2023/03/20 14:45:29;;;;;;;;;;;10.60;99.90;;;;;;5020762;28;19925;-78
2023/03/20 14:48:01;;;;;;;;;;;10.60;99.90;;;;;;4983889;28;19937;-76
2023/03/20 14:50:29;;;;;;;;;;;10.60;99.90;;;;;;5018942;28;19926;-76
2023/03/20 14:53:03;;;;;;;;;;;10.60;99.90;;;;;;5023672;28;19940;-77
2023/03/20 14:55:31;;;;;;;;;;;10.70;99.90;;;;;;5018881;28;20473;-77